sensor_id;sensor_type;location;lat;lon;timestamp;P1;durP1;ratioP1;P2;durP2;ratioP2
78854;SDS011;68206;59.956;30.234;2023-08-31T00:00:45;7.68;;;3.65;;
78854;SDS011;68206;59.956;30.234;2023-08-31T00:03:13;6.72;;;3.70;;
78854;SDS011;68206;59.956;30.234;2023-08-31T00:05:43;6.53;;;3.83;;
78854;SDS011;68206;59.956;30.234;2023-08-31T00:08:13;7.25;;;3.30;;
78854;SDS011;68206;59.956;30.234;2023-08-31T00:10:41;5.95;;;3.50;;
78854;SDS011;68206;59.956;30.234;2023-08-31T00:13:10;6.85;;;3.20;;
78854;SDS011;68206;59.956;30.234;2023-08-31T00:15:39;5.78;;;3.30;;
78854;SDS011;68206;59.956;30.234;2023-08-31T00:18:08;4.72;;;2.80;;
78854;SDS011;68206;59.956;30.234;2023-08-31T00:20:37;8.23;;;3.55;;
78854;SDS011;68206;59.956;30.234;2023-08-31T00:23:05;7.38;;;3.92;;
78854;SDS011;68206;59.956;30.234;2023-08-31T00:25:35;8.02;;;3.40;;
78854;SDS011;68206;59.956;30.234;2023-08-31T00:28:03;4.68;;;3.25;;
78854;SDS011;68206;59.956;30.234;2023-08-31T00:30:32;6.80;;;3.28;;
78854;SDS011;68206;59.956;30.234;2023-08-31T00:33:01;4.88;;;2.85;;
78854;SDS011;68206;59.956;30.234;2023-08-31T00:35:29;6.78;;;3.30;;
78854;SDS011;68206;59.956;30.234;2023-08-31T00:37:57;3.80;;;2.58;;
78854;SDS011;68206;59.956;30.234;2023-08-31T00:40:28;8.30;;;4.15;;
78854;SDS011;68206;59.956;30.234;2023-08-31T00:42:59;6.32;;;3.17;;
78854;SDS011;68206;59.956;30.234;2023-08-31T00:45:27;8.32;;;3.42;;
78854;SDS011;68206;59.956;30.234;2023-08-31T00:47:56;7.55;;;3.67;;
78854;SDS011;68206;59.956;30.234;2023-08-31T00:50:25;7.30;;;4.03;;
78854;SDS011;68206;59.956;30.234;2023-08-31T00:52:54;7.38;;;3.53;;
78854;SDS011;68206;59.956;30.234;2023-08-31T00:55:22;9.32;;;4.25;;
78854;SDS011;68206;59.956;30.234;2023-08-31T00:57:50;8.80;;;4.53;;
78854;SDS011;68206;59.956;30.234;2023-08-31T01:00:21;5.97;;;3.53;;
78854;SDS011;68206;59.956;30.234;2023-08-31T01:02:57;6.65;;;4.47;;
78854;SDS011;68206;59.956;30.234;2023-08-31T01:05:33;7.97;;;3.67;;
78854;SDS011;68206;59.956;30.234;2023-08-31T01:08:12;5.65;;;4.00;;
78854;SDS011;68206;59.956;30.234;2023-08-31T01:10:53;5.72;;;3.92;;
78854;SDS011;68206;59.956;30.234;2023-08-31T01:13:28;7.45;;;4.30;;
78854;SDS011;68206;59.956;30.234;2023-08-31T01:16:06;8.40;;;4.00;;
78854;SDS011;68206;59.956;30.234;2023-08-31T01:18:36;6.57;;;4.05;;
78854;SDS011;68206;59.956;30.234;2023-08-31T01:21:10;5.22;;;3.63;;
78854;SDS011;68206;59.956;30.234;2023-08-31T01:23:49;8.68;;;3.78;;
78854;SDS011;68206;59.956;30.234;2023-08-31T01:26:19;8.00;;;4.35;;
78854;SDS011;68206;59.956;30.234;2023-08-31T01:28:49;5.78;;;3.85;;
78854;SDS011;68206;59.956;30.234;2023-08-31T01:31:19;9.35;;;4.90;;
78854;SDS011;68206;59.956;30.234;2023-08-31T01:33:48;6.80;;;4.38;;
78854;SDS011;68206;59.956;30.234;2023-08-31T01:36:35;7.22;;;3.80;;
78854;SDS011;68206;59.956;30.234;2023-08-31T01:39:09;4.63;;;3.25;;
78854;SDS011;68206;59.956;30.234;2023-08-31T01:41:46;6.10;;;3.50;;
78854;SDS011;68206;59.956;30.234;2023-08-31T01:44:19;6.07;;;3.50;;
78854;SDS011;68206;59.956;30.234;2023-08-31T01:46:51;6.85;;;3.65;;
78854;SDS011;68206;59.956;30.234;2023-08-31T01:49:23;7.38;;;4.00;;
78854;SDS011;68206;59.956;30.234;2023-08-31T01:51:51;5.82;;;3.83;;
78854;SDS011;68206;59.956;30.234;2023-08-31T01:54:22;9.45;;;4.18;;
78854;SDS011;68206;59.956;30.234;2023-08-31T01:56:50;5.72;;;3.92;;
78854;SDS011;68206;59.956;30.234;2023-08-31T01:59:18;7.47;;;3.72;;
78854;SDS011;68206;59.956;30.234;2023-08-31T02:01:48;9.02;;;3.45;;
78854;SDS011;68206;59.956;30.234;2023-08-31T02:04:17;5.63;;;4.07;;
78854;SDS011;68206;59.956;30.234;2023-08-31T02:06:45;5.28;;;3.53;;
78854;SDS011;68206;59.956;30.234;2023-08-31T02:09:14;7.78;;;3.90;;
78854;SDS011;68206;59.956;30.234;2023-08-31T02:11:43;10.45;;;4.45;;
78854;SDS011;68206;59.956;30.234;2023-08-31T02:14:14;6.38;;;3.50;;
78854;SDS011;68206;59.956;30.234;2023-08-31T02:16:42;6.40;;;4.18;;
78854;SDS011;68206;59.956;30.234;2023-08-31T02:19:11;8.15;;;4.45;;
78854;SDS011;68206;59.956;30.234;2023-08-31T02:21:39;6.82;;;3.95;;
78854;SDS011;68206;59.956;30.234;2023-08-31T02:24:08;8.02;;;4.00;;
78854;SDS011;68206;59.956;30.234;2023-08-31T02:26:40;7.50;;;4.70;;
78854;SDS011;68206;59.956;30.234;2023-08-31T02:29:09;10.20;;;4.70;;
78854;SDS011;68206;59.956;30.234;2023-08-31T02:31:38;7.30;;;4.88;;
78854;SDS011;68206;59.956;30.234;2023-08-31T02:34:08;11.38;;;5.15;;
78854;SDS011;68206;59.956;30.234;2023-08-31T02:36:36;6.88;;;4.20;;
78854;SDS011;68206;59.956;30.234;2023-08-31T02:39:04;7.57;;;4.90;;
78854;SDS011;68206;59.956;30.234;2023-08-31T02:41:35;8.45;;;4.78;;
78854;SDS011;68206;59.956;30.234;2023-08-31T02:44:04;10.55;;;5.00;;
78854;SDS011;68206;59.956;30.234;2023-08-31T02:46:34;9.88;;;5.30;;
78854;SDS011;68206;59.956;30.234;2023-08-31T02:49:02;11.80;;;4.47;;
78854;SDS011;68206;59.956;30.234;2023-08-31T02:51:30;6.82;;;4.78;;
78854;SDS011;68206;59.956;30.234;2023-08-31T02:53:58;14.60;;;6.40;;
78854;SDS011;68206;59.956;30.234;2023-08-31T02:56:27;9.98;;;5.13;;
78854;SDS011;68206;59.956;30.234;2023-08-31T02:58:55;12.05;;;5.22;;
78854;SDS011;68206;59.956;30.234;2023-08-31T03:01:24;19.70;;;7.40;;
78854;SDS011;68206;59.956;30.234;2023-08-31T03:03:54;15.80;;;6.35;;
78854;SDS011;68206;59.956;30.234;2023-08-31T03:06:22;31.58;;;11.48;;
78854;SDS011;68206;59.956;30.234;2023-08-31T03:08:51;36.97;;;12.20;;
78854;SDS011;68206;59.956;30.234;2023-08-31T03:11:19;34.60;;;12.07;;
78854;SDS011;68206;59.956;30.234;2023-08-31T03:13:47;34.53;;;11.63;;
78854;SDS011;68206;59.956;30.234;2023-08-31T03:16:16;31.55;;;11.02;;
78854;SDS011;68206;59.956;30.234;2023-08-31T03:18:44;34.30;;;10.82;;
78854;SDS011;68206;59.956;30.234;2023-08-31T03:21:15;33.13;;;9.90;;
78854;SDS011;68206;59.956;30.234;2023-08-31T03:23:44;29.40;;;10.20;;
78854;SDS011;68206;59.956;30.234;2023-08-31T03:26:12;24.33;;;9.23;;
78854;SDS011;68206;59.956;30.234;2023-08-31T03:28:40;21.52;;;8.27;;
78854;SDS011;68206;59.956;30.234;2023-08-31T03:31:08;24.27;;;8.35;;
78854;SDS011;68206;59.956;30.234;2023-08-31T03:33:37;23.08;;;8.15;;
78854;SDS011;68206;59.956;30.234;2023-08-31T03:36:05;25.40;;;8.95;;
78854;SDS011;68206;59.956;30.234;2023-08-31T03:38:35;21.45;;;8.50;;
78854;SDS011;68206;59.956;30.234;2023-08-31T03:41:05;18.35;;;6.68;;
78854;SDS011;68206;59.956;30.234;2023-08-31T03:43:33;21.73;;;8.70;;
78854;SDS011;68206;59.956;30.234;2023-08-31T03:46:01;20.80;;;7.60;;
78854;SDS011;68206;59.956;30.234;2023-08-31T03:48:30;14.80;;;6.22;;
78854;SDS011;68206;59.956;30.234;2023-08-31T03:50:58;15.70;;;6.90;;
78854;SDS011;68206;59.956;30.234;2023-08-31T03:53:27;20.30;;;7.53;;
78854;SDS011;68206;59.956;30.234;2023-08-31T03:55:58;18.20;;;7.50;;
78854;SDS011;68206;59.956;30.234;2023-08-31T03:58:28;13.15;;;5.38;;
78854;SDS011;68206;59.956;30.234;2023-08-31T04:00:56;13.85;;;4.95;;
78854;SDS011;68206;59.956;30.234;2023-08-31T04:03:25;11.18;;;5.00;;
78854;SDS011;68206;59.956;30.234;2023-08-31T04:05:54;14.05;;;4.47;;
78854;SDS011;68206;59.956;30.234;2023-08-31T04:08:22;8.48;;;4.25;;
78854;SDS011;68206;59.956;30.234;2023-08-31T04:10:50;8.05;;;4.30;;
78854;SDS011;68206;59.956;30.234;2023-08-31T04:13:21;10.65;;;4.70;;
78854;SDS011;68206;59.956;30.234;2023-08-31T04:15:51;11.13;;;4.63;;
78854;SDS011;68206;59.956;30.234;2023-08-31T04:18:20;8.10;;;5.10;;
78854;SDS011;68206;59.956;30.234;2023-08-31T04:20:49;7.30;;;4.22;;
78854;SDS011;68206;59.956;30.234;2023-08-31T04:23:18;10.15;;;4.90;;
78854;SDS011;68206;59.956;30.234;2023-08-31T04:25:47;8.15;;;4.47;;
78854;SDS011;68206;59.956;30.234;2023-08-31T04:28:18;6.68;;;4.10;;
78854;SDS011;68206;59.956;30.234;2023-08-31T04:30:48;9.18;;;4.65;;
78854;SDS011;68206;59.956;30.234;2023-08-31T04:33:17;10.13;;;4.85;;
78854;SDS011;68206;59.956;30.234;2023-08-31T04:35:45;11.50;;;5.25;;
78854;SDS011;68206;59.956;30.234;2023-08-31T04:38:14;11.50;;;4.72;;
78854;SDS011;68206;59.956;30.234;2023-08-31T04:40:42;7.70;;;4.82;;
78854;SDS011;68206;59.956;30.234;2023-08-31T04:43:11;7.57;;;4.32;;
78854;SDS011;68206;59.956;30.234;2023-08-31T04:45:40;7.05;;;4.80;;
78854;SDS011;68206;59.956;30.234;2023-08-31T04:48:09;18.40;;;8.73;;
78854;SDS011;68206;59.956;30.234;2023-08-31T04:50:37;7.13;;;4.93;;
78854;SDS011;68206;59.956;30.234;2023-08-31T04:53:05;6.55;;;4.30;;
78854;SDS011;68206;59.956;30.234;2023-08-31T04:55:33;10.45;;;4.65;;
78854;SDS011;68206;59.956;30.234;2023-08-31T04:58:02;9.40;;;4.85;;
78854;SDS011;68206;59.956;30.234;2023-08-31T05:00:30;11.60;;;4.65;;
78854;SDS011;68206;59.956;30.234;2023-08-31T05:02:59;7.85;;;4.68;;
78854;SDS011;68206;59.956;30.234;2023-08-31T05:05:28;10.50;;;4.82;;
78854;SDS011;68206;59.956;30.234;2023-08-31T05:07:59;12.38;;;4.93;;
78854;SDS011;68206;59.956;30.234;2023-08-31T05:10:28;7.40;;;4.15;;
78854;SDS011;68206;59.956;30.234;2023-08-31T05:12:56;7.30;;;4.82;;
78854;SDS011;68206;59.956;30.234;2023-08-31T05:15:24;5.38;;;3.58;;
78854;SDS011;68206;59.956;30.234;2023-08-31T05:17:54;7.90;;;4.78;;
78854;SDS011;68206;59.956;30.234;2023-08-31T05:20:22;9.18;;;4.25;;
78854;SDS011;68206;59.956;30.234;2023-08-31T05:22:52;12.02;;;5.20;;
78854;SDS011;68206;59.956;30.234;2023-08-31T05:25:20;9.35;;;4.63;;
78854;SDS011;68206;59.956;30.234;2023-08-31T05:27:49;9.95;;;3.83;;
78854;SDS011;68206;59.956;30.234;2023-08-31T05:30:17;8.75;;;4.13;;
78854;SDS011;68206;59.956;30.234;2023-08-31T05:32:45;6.40;;;4.38;;
78854;SDS011;68206;59.956;30.234;2023-08-31T05:35:14;5.85;;;4.00;;
78854;SDS011;68206;59.956;30.234;2023-08-31T05:37:42;9.13;;;4.57;;
78854;SDS011;68206;59.956;30.234;2023-08-31T05:40:12;8.88;;;4.20;;
78854;SDS011;68206;59.956;30.234;2023-08-31T05:42:40;7.15;;;4.43;;
78854;SDS011;68206;59.956;30.234;2023-08-31T05:45:09;5.75;;;4.10;;
78854;SDS011;68206;59.956;30.234;2023-08-31T05:47:38;6.78;;;4.45;;
78854;SDS011;68206;59.956;30.234;2023-08-31T05:50:06;9.40;;;4.45;;
78854;SDS011;68206;59.956;30.234;2023-08-31T05:52:35;8.30;;;4.63;;
78854;SDS011;68206;59.956;30.234;2023-08-31T05:55:04;7.78;;;4.35;;
78854;SDS011;68206;59.956;30.234;2023-08-31T05:57:34;6.50;;;4.53;;
78854;SDS011;68206;59.956;30.234;2023-08-31T06:00:04;9.60;;;5.45;;
78854;SDS011;68206;59.956;30.234;2023-08-31T06:02:38;7.32;;;4.75;;
78854;SDS011;68206;59.956;30.234;2023-08-31T06:05:07;7.28;;;4.05;;
78854;SDS011;68206;59.956;30.234;2023-08-31T06:07:36;11.82;;;4.57;;
78854;SDS011;68206;59.956;30.234;2023-08-31T06:10:04;5.80;;;3.95;;
78854;SDS011;68206;59.956;30.234;2023-08-31T06:12:34;6.47;;;4.63;;
78854;SDS011;68206;59.956;30.234;2023-08-31T06:15:03;7.53;;;4.53;;
78854;SDS011;68206;59.956;30.234;2023-08-31T06:17:32;11.95;;;4.90;;
78854;SDS011;68206;59.956;30.234;2023-08-31T06:20:02;6.35;;;4.05;;
78854;SDS011;68206;59.956;30.234;2023-08-31T06:22:32;7.10;;;3.80;;
78854;SDS011;68206;59.956;30.234;2023-08-31T06:25:00;11.98;;;4.75;;
78854;SDS011;68206;59.956;30.234;2023-08-31T06:27:29;6.47;;;4.03;;
78854;SDS011;68206;59.956;30.234;2023-08-31T06:29:59;9.18;;;5.00;;
78854;SDS011;68206;59.956;30.234;2023-08-31T06:32:30;7.72;;;4.22;;
78854;SDS011;68206;59.956;30.234;2023-08-31T06:34:58;6.68;;;4.63;;
78854;SDS011;68206;59.956;30.234;2023-08-31T06:37:26;11.80;;;5.13;;
78854;SDS011;68206;59.956;30.234;2023-08-31T06:39:55;11.40;;;7.38;;
78854;SDS011;68206;59.956;30.234;2023-08-31T06:42:23;13.05;;;5.28;;
78854;SDS011;68206;59.956;30.234;2023-08-31T06:44:53;10.65;;;4.57;;
78854;SDS011;68206;59.956;30.234;2023-08-31T06:47:25;11.45;;;5.35;;
78854;SDS011;68206;59.956;30.234;2023-08-31T06:49:53;10.75;;;4.78;;
78854;SDS011;68206;59.956;30.234;2023-08-31T06:52:21;10.05;;;5.30;;
78854;SDS011;68206;59.956;30.234;2023-08-31T06:54:58;10.10;;;5.45;;
78854;SDS011;68206;59.956;30.234;2023-08-31T06:57:26;18.83;;;5.70;;
78854;SDS011;68206;59.956;30.234;2023-08-31T06:59:55;7.90;;;4.68;;
78854;SDS011;68206;59.956;30.234;2023-08-31T07:02:26;9.10;;;4.97;;
78854;SDS011;68206;59.956;30.234;2023-08-31T07:04:55;9.07;;;4.90;;
78854;SDS011;68206;59.956;30.234;2023-08-31T07:07:23;10.98;;;5.20;;
78854;SDS011;68206;59.956;30.234;2023-08-31T07:09:51;12.50;;;4.97;;
78854;SDS011;68206;59.956;30.234;2023-08-31T07:12:21;12.68;;;4.95;;
78854;SDS011;68206;59.956;30.234;2023-08-31T07:14:49;8.27;;;4.47;;
78854;SDS011;68206;59.956;30.234;2023-08-31T07:17:18;9.43;;;5.25;;
78854;SDS011;68206;59.956;30.234;2023-08-31T07:19:49;10.10;;;5.95;;
78854;SDS011;68206;59.956;30.234;2023-08-31T07:22:17;13.38;;;5.75;;
78854;SDS011;68206;59.956;30.234;2023-08-31T07:24:45;7.75;;;4.82;;
78854;SDS011;68206;59.956;30.234;2023-08-31T07:27:14;8.00;;;5.35;;
78854;SDS011;68206;59.956;30.234;2023-08-31T07:29:42;7.57;;;5.13;;
78854;SDS011;68206;59.956;30.234;2023-08-31T07:32:10;15.80;;;5.65;;
78854;SDS011;68206;59.956;30.234;2023-08-31T07:34:38;8.98;;;5.35;;
78854;SDS011;68206;59.956;30.234;2023-08-31T07:37:08;11.88;;;5.43;;
78854;SDS011;68206;59.956;30.234;2023-08-31T07:39:37;9.77;;;4.75;;
78854;SDS011;68206;59.956;30.234;2023-08-31T07:42:05;10.00;;;5.43;;
78854;SDS011;68206;59.956;30.234;2023-08-31T07:44:33;9.50;;;5.10;;
78854;SDS011;68206;59.956;30.234;2023-08-31T07:47:02;10.43;;;4.97;;
78854;SDS011;68206;59.956;30.234;2023-08-31T07:49:30;9.25;;;5.95;;
78854;SDS011;68206;59.956;30.234;2023-08-31T07:51:58;9.23;;;4.65;;
78854;SDS011;68206;59.956;30.234;2023-08-31T07:54:28;14.73;;;5.72;;
78854;SDS011;68206;59.956;30.234;2023-08-31T07:56:57;8.70;;;5.40;;
78854;SDS011;68206;59.956;30.234;2023-08-31T07:59:25;7.55;;;4.57;;
78854;SDS011;68206;59.956;30.234;2023-08-31T08:01:54;6.15;;;4.88;;
78854;SDS011;68206;59.956;30.234;2023-08-31T08:04:22;8.40;;;5.40;;
78854;SDS011;68206;59.956;30.234;2023-08-31T08:06:52;10.05;;;4.75;;
78854;SDS011;68206;59.956;30.234;2023-08-31T08:09:21;11.07;;;5.40;;
78854;SDS011;68206;59.956;30.234;2023-08-31T08:11:50;8.45;;;4.82;;
78854;SDS011;68206;59.956;30.234;2023-08-31T08:14:19;6.40;;;4.65;;
78854;SDS011;68206;59.956;30.234;2023-08-31T08:16:47;8.50;;;5.00;;
78854;SDS011;68206;59.956;30.234;2023-08-31T08:19:20;7.70;;;5.55;;
78854;SDS011;68206;59.956;30.234;2023-08-31T08:21:49;10.73;;;5.72;;
78854;SDS011;68206;59.956;30.234;2023-08-31T08:24:17;7.00;;;4.57;;
78854;SDS011;68206;59.956;30.234;2023-08-31T08:26:46;8.95;;;5.20;;
78854;SDS011;68206;59.956;30.234;2023-08-31T08:29:15;11.55;;;5.47;;
78854;SDS011;68206;59.956;30.234;2023-08-31T08:31:44;10.00;;;5.60;;
78854;SDS011;68206;59.956;30.234;2023-08-31T08:34:12;8.32;;;5.22;;
78854;SDS011;68206;59.956;30.234;2023-08-31T08:36:40;8.65;;;5.50;;
78854;SDS011;68206;59.956;30.234;2023-08-31T08:39:09;8.68;;;4.63;;
78854;SDS011;68206;59.956;30.234;2023-08-31T08:41:38;8.57;;;4.18;;
78854;SDS011;68206;59.956;30.234;2023-08-31T08:44:07;7.43;;;4.75;;
78854;SDS011;68206;59.956;30.234;2023-08-31T08:46:37;9.48;;;4.97;;
78854;SDS011;68206;59.956;30.234;2023-08-31T08:49:06;8.50;;;5.53;;
78854;SDS011;68206;59.956;30.234;2023-08-31T08:51:35;14.57;;;5.75;;
78854;SDS011;68206;59.956;30.234;2023-08-31T08:54:03;9.80;;;6.10;;
78854;SDS011;68206;59.956;30.234;2023-08-31T08:56:32;10.13;;;4.53;;
78854;SDS011;68206;59.956;30.234;2023-08-31T08:59:01;9.65;;;6.15;;
78854;SDS011;68206;59.956;30.234;2023-08-31T09:01:29;8.77;;;5.28;;
78854;SDS011;68206;59.956;30.234;2023-08-31T09:03:59;11.20;;;5.07;;
78854;SDS011;68206;59.956;30.234;2023-08-31T09:06:27;10.73;;;5.70;;
78854;SDS011;68206;59.956;30.234;2023-08-31T09:08:56;9.13;;;4.57;;
78854;SDS011;68206;59.956;30.234;2023-08-31T09:11:25;11.90;;;5.53;;
78854;SDS011;68206;59.956;30.234;2023-08-31T09:13:53;11.45;;;5.43;;
78854;SDS011;68206;59.956;30.234;2023-08-31T09:16:24;12.25;;;6.63;;
78854;SDS011;68206;59.956;30.234;2023-08-31T09:18:56;8.40;;;6.15;;
78854;SDS011;68206;59.956;30.234;2023-08-31T09:21:35;8.23;;;5.55;;
78854;SDS011;68206;59.956;30.234;2023-08-31T09:24:05;9.00;;;5.47;;
78854;SDS011;68206;59.956;30.234;2023-08-31T09:26:38;9.30;;;6.05;;
78854;SDS011;68206;59.956;30.234;2023-08-31T09:29:07;11.07;;;5.35;;
78854;SDS011;68206;59.956;30.234;2023-08-31T09:31:35;8.52;;;5.57;;
78854;SDS011;68206;59.956;30.234;2023-08-31T09:34:04;10.90;;;5.93;;
78854;SDS011;68206;59.956;30.234;2023-08-31T09:36:33;9.90;;;6.00;;
78854;SDS011;68206;59.956;30.234;2023-08-31T09:39:03;14.20;;;6.93;;
78854;SDS011;68206;59.956;30.234;2023-08-31T09:41:33;10.75;;;6.47;;
78854;SDS011;68206;59.956;30.234;2023-08-31T09:44:14;11.82;;;6.20;;
78854;SDS011;68206;59.956;30.234;2023-08-31T09:46:43;8.93;;;5.20;;
78854;SDS011;68206;59.956;30.234;2023-08-31T09:49:13;12.95;;;7.03;;
78854;SDS011;68206;59.956;30.234;2023-08-31T09:51:43;13.77;;;6.82;;
78854;SDS011;68206;59.956;30.234;2023-08-31T09:54:15;8.32;;;5.32;;
78854;SDS011;68206;59.956;30.234;2023-08-31T09:56:46;9.95;;;6.00;;
78854;SDS011;68206;59.956;30.234;2023-08-31T09:59:15;10.65;;;5.63;;
78854;SDS011;68206;59.956;30.234;2023-08-31T10:01:45;11.70;;;6.47;;
78854;SDS011;68206;59.956;30.234;2023-08-31T10:04:14;10.40;;;5.97;;
78854;SDS011;68206;59.956;30.234;2023-08-31T10:06:44;9.10;;;5.90;;
78854;SDS011;68206;59.956;30.234;2023-08-31T10:09:12;11.27;;;6.00;;
78854;SDS011;68206;59.956;30.234;2023-08-31T10:11:43;12.75;;;6.75;;
78854;SDS011;68206;59.956;30.234;2023-08-31T10:14:12;8.73;;;5.30;;
78854;SDS011;68206;59.956;30.234;2023-08-31T10:16:42;13.40;;;6.68;;
78854;SDS011;68206;59.956;30.234;2023-08-31T10:19:12;10.90;;;6.85;;
78854;SDS011;68206;59.956;30.234;2023-08-31T10:21:41;8.75;;;6.05;;
78854;SDS011;68206;59.956;30.234;2023-08-31T10:24:11;10.98;;;6.32;;
78854;SDS011;68206;59.956;30.234;2023-08-31T10:26:41;12.10;;;6.30;;
78854;SDS011;68206;59.956;30.234;2023-08-31T10:29:24;8.55;;;5.35;;
78854;SDS011;68206;59.956;30.234;2023-08-31T10:31:58;11.88;;;6.00;;
78854;SDS011;68206;59.956;30.234;2023-08-31T10:34:35;8.57;;;5.88;;
78854;SDS011;68206;59.956;30.234;2023-08-31T10:37:19;11.10;;;6.72;;
78854;SDS011;68206;59.956;30.234;2023-08-31T10:42:42;9.45;;;5.75;;
78854;SDS011;68206;59.956;30.234;2023-08-31T10:45:12;10.15;;;6.28;;
78854;SDS011;68206;59.956;30.234;2023-08-31T10:47:41;10.00;;;5.82;;
78854;SDS011;68206;59.956;30.234;2023-08-31T10:50:15;12.35;;;5.22;;
78854;SDS011;68206;59.956;30.234;2023-08-31T10:52:45;8.20;;;5.90;;
78854;SDS011;68206;59.956;30.234;2023-08-31T10:55:13;8.95;;;5.70;;
78854;SDS011;68206;59.956;30.234;2023-08-31T10:57:43;8.07;;;5.63;;
78854;SDS011;68206;59.956;30.234;2023-08-31T11:00:12;9.63;;;6.85;;
78854;SDS011;68206;59.956;30.234;2023-08-31T11:02:44;9.60;;;6.35;;
78854;SDS011;68206;59.956;30.234;2023-08-31T11:05:14;8.85;;;5.90;;
78854;SDS011;68206;59.956;30.234;2023-08-31T11:07:45;8.10;;;5.72;;
78854;SDS011;68206;59.956;30.234;2023-08-31T11:10:15;9.25;;;5.60;;
78854;SDS011;68206;59.956;30.234;2023-08-31T11:12:48;11.80;;;6.97;;
78854;SDS011;68206;59.956;30.234;2023-08-31T11:15:18;14.38;;;6.05;;
78854;SDS011;68206;59.956;30.234;2023-08-31T11:17:48;11.75;;;5.97;;
78854;SDS011;68206;59.956;30.234;2023-08-31T11:20:19;14.10;;;6.85;;
78854;SDS011;68206;59.956;30.234;2023-08-31T11:22:48;8.75;;;5.70;;
78854;SDS011;68206;59.956;30.234;2023-08-31T11:27:55;10.02;;;6.00;;
78854;SDS011;68206;59.956;30.234;2023-08-31T11:30:24;6.47;;;4.63;;
78854;SDS011;68206;59.956;30.234;2023-08-31T11:32:53;12.73;;;5.53;;
78854;SDS011;68206;59.956;30.234;2023-08-31T11:35:22;8.55;;;5.03;;
78854;SDS011;68206;59.956;30.234;2023-08-31T11:37:52;9.10;;;5.82;;
78854;SDS011;68206;59.956;30.234;2023-08-31T11:40:25;12.48;;;5.10;;
78854;SDS011;68206;59.956;30.234;2023-08-31T11:42:55;9.60;;;5.60;;
78854;SDS011;68206;59.956;30.234;2023-08-31T11:45:24;17.70;;;5.88;;
78854;SDS011;68206;59.956;30.234;2023-08-31T11:47:53;11.02;;;5.00;;
78854;SDS011;68206;59.956;30.234;2023-08-31T11:50:22;12.27;;;5.60;;
78854;SDS011;68206;59.956;30.234;2023-08-31T11:52:52;7.95;;;4.90;;
78854;SDS011;68206;59.956;30.234;2023-08-31T11:55:20;6.03;;;4.57;;
78854;SDS011;68206;59.956;30.234;2023-08-31T11:57:50;9.43;;;4.30;;
78854;SDS011;68206;59.956;30.234;2023-08-31T12:00:20;7.82;;;5.35;;
78854;SDS011;68206;59.956;30.234;2023-08-31T12:02:58;12.50;;;5.53;;
78854;SDS011;68206;59.956;30.234;2023-08-31T12:05:28;7.82;;;5.40;;
78854;SDS011;68206;59.956;30.234;2023-08-31T12:07:58;8.30;;;4.70;;
78854;SDS011;68206;59.956;30.234;2023-08-31T12:10:26;7.55;;;5.45;;
78854;SDS011;68206;59.956;30.234;2023-08-31T12:13:07;9.68;;;5.25;;
78854;SDS011;68206;59.956;30.234;2023-08-31T12:15:37;8.02;;;4.78;;
78854;SDS011;68206;59.956;30.234;2023-08-31T12:18:06;7.80;;;4.40;;
78854;SDS011;68206;59.956;30.234;2023-08-31T12:20:42;8.90;;;5.13;;
78854;SDS011;68206;59.956;30.234;2023-08-31T12:23:11;10.23;;;5.22;;
78854;SDS011;68206;59.956;30.234;2023-08-31T12:25:45;10.02;;;5.38;;
78854;SDS011;68206;59.956;30.234;2023-08-31T12:28:16;9.75;;;5.70;;
78854;SDS011;68206;59.956;30.234;2023-08-31T12:30:47;10.13;;;5.20;;
78854;SDS011;68206;59.956;30.234;2023-08-31T12:33:16;9.23;;;4.65;;
78854;SDS011;68206;59.956;30.234;2023-08-31T12:35:46;6.97;;;4.95;;
78854;SDS011;68206;59.956;30.234;2023-08-31T12:38:14;15.55;;;5.35;;
78854;SDS011;68206;59.956;30.234;2023-08-31T12:40:43;9.18;;;4.97;;
78854;SDS011;68206;59.956;30.234;2023-08-31T12:43:11;13.38;;;5.72;;
78854;SDS011;68206;59.956;30.234;2023-08-31T12:45:40;7.38;;;5.15;;
78854;SDS011;68206;59.956;30.234;2023-08-31T12:48:09;9.68;;;5.45;;
78854;SDS011;68206;59.956;30.234;2023-08-31T12:50:38;10.55;;;5.53;;
78854;SDS011;68206;59.956;30.234;2023-08-31T12:53:06;9.50;;;5.55;;
78854;SDS011;68206;59.956;30.234;2023-08-31T12:55:35;7.78;;;5.10;;
78854;SDS011;68206;59.956;30.234;2023-08-31T12:58:03;8.80;;;5.03;;
78854;SDS011;68206;59.956;30.234;2023-08-31T13:00:31;8.50;;;4.70;;
78854;SDS011;68206;59.956;30.234;2023-08-31T13:03:00;8.25;;;5.72;;
78854;SDS011;68206;59.956;30.234;2023-08-31T13:05:31;10.77;;;5.50;;
78854;SDS011;68206;59.956;30.234;2023-08-31T13:07:59;12.43;;;5.65;;
78854;SDS011;68206;59.956;30.234;2023-08-31T13:10:28;8.93;;;5.72;;
78854;SDS011;68206;59.956;30.234;2023-08-31T13:12:56;9.45;;;5.25;;
78854;SDS011;68206;59.956;30.234;2023-08-31T13:15:24;10.07;;;5.43;;
78854;SDS011;68206;59.956;30.234;2023-08-31T13:17:52;14.02;;;5.80;;
78854;SDS011;68206;59.956;30.234;2023-08-31T13:20:21;9.77;;;6.35;;
78854;SDS011;68206;59.956;30.234;2023-08-31T13:22:50;10.40;;;6.03;;
78854;SDS011;68206;59.956;30.234;2023-08-31T13:25:19;10.18;;;5.65;;
78854;SDS011;68206;59.956;30.234;2023-08-31T13:27:47;9.00;;;5.30;;
78854;SDS011;68206;59.956;30.234;2023-08-31T13:30:15;9.27;;;6.15;;
78854;SDS011;68206;59.956;30.234;2023-08-31T13:32:44;13.82;;;6.72;;
78854;SDS011;68206;59.956;30.234;2023-08-31T13:35:12;8.80;;;5.30;;
78854;SDS011;68206;59.956;30.234;2023-08-31T13:37:42;10.30;;;5.70;;
78854;SDS011;68206;59.956;30.234;2023-08-31T13:40:11;7.88;;;5.60;;
78854;SDS011;68206;59.956;30.234;2023-08-31T13:42:48;10.10;;;6.00;;
78854;SDS011;68206;59.956;30.234;2023-08-31T13:45:23;7.60;;;5.18;;
78854;SDS011;68206;59.956;30.234;2023-08-31T13:47:51;7.75;;;5.20;;
78854;SDS011;68206;59.956;30.234;2023-08-31T13:50:20;8.88;;;5.38;;
78854;SDS011;68206;59.956;30.234;2023-08-31T13:52:48;11.32;;;6.38;;
78854;SDS011;68206;59.956;30.234;2023-08-31T13:55:18;8.50;;;5.90;;
78854;SDS011;68206;59.956;30.234;2023-08-31T13:57:47;11.52;;;6.20;;
78854;SDS011;68206;59.956;30.234;2023-08-31T14:00:15;12.07;;;5.80;;
78854;SDS011;68206;59.956;30.234;2023-08-31T14:02:44;9.45;;;5.55;;
78854;SDS011;68206;59.956;30.234;2023-08-31T14:05:13;12.63;;;5.80;;
78854;SDS011;68206;59.956;30.234;2023-08-31T14:07:41;8.93;;;5.10;;
78854;SDS011;68206;59.956;30.234;2023-08-31T14:10:09;12.90;;;5.70;;
78854;SDS011;68206;59.956;30.234;2023-08-31T14:12:39;10.50;;;5.75;;
78854;SDS011;68206;59.956;30.234;2023-08-31T14:15:08;6.25;;;4.70;;
78854;SDS011;68206;59.956;30.234;2023-08-31T14:17:36;6.45;;;4.43;;
78854;SDS011;68206;59.956;30.234;2023-08-31T14:20:05;13.25;;;4.68;;
78854;SDS011;68206;59.956;30.234;2023-08-31T14:22:38;8.50;;;4.50;;
78854;SDS011;68206;59.956;30.234;2023-08-31T14:25:09;8.65;;;4.47;;
78854;SDS011;68206;59.956;30.234;2023-08-31T14:27:39;6.10;;;4.07;;
78854;SDS011;68206;59.956;30.234;2023-08-31T14:30:08;8.52;;;4.90;;
78854;SDS011;68206;59.956;30.234;2023-08-31T14:32:37;10.75;;;4.70;;
78854;SDS011;68206;59.956;30.234;2023-08-31T14:35:06;11.50;;;5.47;;
78854;SDS011;68206;59.956;30.234;2023-08-31T14:37:34;7.40;;;4.47;;
78854;SDS011;68206;59.956;30.234;2023-08-31T14:40:03;7.28;;;4.32;;
78854;SDS011;68206;59.956;30.234;2023-08-31T14:42:34;9.85;;;3.88;;
78854;SDS011;68206;59.956;30.234;2023-08-31T14:45:05;7.88;;;4.10;;
78854;SDS011;68206;59.956;30.234;2023-08-31T14:47:34;7.68;;;4.30;;